Time;durP1;ratioP1;P1;durP2;ratioP2;P2;SDS_P1;SDS_P2;PMS_P1;PMS_P2;Temp;Humidity;BMP_temperature;BMP_pressure;BME280_temperature;BME280_humidity;BME280_pressure;Samples;Min_cycle;Max_cycle;Signal;HPM_P1;HPM_P2
2023/04/03 00:00:39;;;;;;;6.25;1.92;;;1.40;99.00;;;;;;5034844;28;20198;-62
2023/04/03 00:03:06;;;;;;;6.57;2.20;;;1.40;99.00;;;;;;5035915;28;20202;-62
2023/04/03 00:05:33;;;;;;;5.28;1.50;;;1.30;99.30;;;;;;5035992;28;20309;-62
2023/04/03 00:08:01;;;;;;;3.90;1.35;;;1.20;99.40;;;;;;5035561;28;20202;-61
2023/04/03 00:10:28;;;;;;;2.25;1.20;;;1.20;99.60;;;;;;5035205;28;20232;-61
2023/04/03 00:12:57;;;;;;;2.20;1.92;;;1.20;99.80;;;;;;5035133;28;20218;-62
2023/04/03 00:15:23;;;;;;;2.05;1.48;;;1.20;99.90;;;;;;5036406;28;20230;-61
2023/04/03 00:17:50;;;;;;;6.10;1.63;;;1.20;99.90;;;;;;5034683;28;20208;-62
2023/04/03 00:20:17;;;;;;;1.88;1.27;;;1.10;99.90;;;;;;5034870;28;20210;-62
2023/04/03 00:22:44;;;;;;;5.20;1.98;;;1.10;99.90;;;;;;5034756;28;20202;-62
2023/04/03 00:25:11;;;;;;;1.60;1.42;;;1.10;99.90;;;;;;5035307;28;20229;-62
2023/04/03 00:27:39;;;;;;;1.90;1.65;;;1.00;99.90;;;;;;5037687;28;20198;-62
2023/04/03 00:30:11;;;;;;;1.80;1.50;;;0.90;99.90;;;;;;5038608;28;20230;-62
2023/04/03 00:32:38;;;;;;;3.78;2.45;;;0.90;99.90;;;;;;5038924;28;20191;-62
2023/04/03 00:37:39;;;;;;;2.42;1.52;;;0.90;99.90;;;;;;5055738;28;20244;-70
2023/04/03 00:40:08;;;;;;;3.05;1.55;;;0.80;99.90;;;;;;5057268;28;20225;-69
2023/04/03 00:42:35;;;;;;;1.80;1.70;;;0.80;99.90;;;;;;5056781;28;20251;-70
2023/04/03 00:45:27;;;;;;;2.83;1.50;;;0.80;99.90;;;;;;5057283;28;20229;-69
2023/04/03 00:47:54;;;;;;;2.42;1.70;;;0.70;99.90;;;;;;5056561;28;20675;-69
2023/04/03 00:50:21;;;;;;;5.63;2.30;;;0.70;99.90;;;;;;5056761;28;20205;-69
2023/04/03 00:52:48;;;;;;;4.32;1.98;;;0.70;99.90;;;;;;5057028;28;20242;-70
2023/04/03 00:55:17;;;;;;;2.58;1.52;;;0.60;99.90;;;;;;5056896;28;20209;-70
2023/04/03 00:57:44;;;;;;;5.00;1.70;;;0.60;99.90;;;;;;5056867;28;20631;-69
2023/04/03 01:00:15;;;;;;;5.15;1.80;;;0.60;99.90;;;;;;5056634;28;20208;-69
2023/04/03 01:02:43;;;;;;;4.93;3.20;;;0.50;99.90;;;;;;5057166;28;20198;-69
2023/04/03 01:05:10;;;;;;;3.63;1.92;;;0.50;99.90;;;;;;5056998;28;20208;-69
2023/04/03 01:07:37;;;;;;;5.70;1.98;;;0.50;99.90;;;;;;5056883;28;20202;-68
2023/04/03 01:10:09;;;;;;;3.80;1.80;;;0.50;99.90;;;;;;5056871;28;20201;-69
2023/04/03 01:12:37;;;;;;;4.20;1.48;;;0.40;99.90;;;;;;5056488;28;20196;-69
2023/04/03 01:15:07;;;;;;;3.53;1.52;;;0.40;99.90;;;;;;5056442;28;20209;-69
2023/04/03 01:17:36;;;;;;;9.80;2.20;;;0.30;99.90;;;;;;5058652;28;20226;-69
2023/04/03 01:20:39;;;;;;;2.83;1.30;;;0.30;99.90;;;;;;5067010;28;20202;-68
2023/04/03 01:23:16;;;;;;;2.20;1.60;;;0.30;99.90;;;;;;5066802;28;20204;-69
2023/04/03 01:25:45;;;;;;;2.83;1.70;;;0.20;99.90;;;;;;5066250;28;20717;-69
2023/04/03 01:28:15;;;;;;;2.03;1.77;;;0.20;99.90;;;;;;5061151;28;20205;-69
2023/04/03 01:30:47;;;;;;;2.90;1.30;;;0.20;99.90;;;;;;5061232;28;20269;-69
2023/04/03 01:33:15;;;;;;;4.63;1.55;;;0.20;99.90;;;;;;5066562;28;20190;-69
2023/04/03 01:35:42;;;;;;;3.25;1.55;;;0.20;99.90;;;;;;5070134;28;20715;-69
2023/04/03 01:38:10;;;;;;;2.92;1.38;;;0.10;99.90;;;;;;5070436;28;20190;-69
2023/04/03 01:40:37;;;;;;;5.97;2.45;;;0.10;99.90;;;;;;5059836;28;20205;-69
2023/04/03 01:43:03;;;;;;;1.65;1.45;;;0.10;99.90;;;;;;5057849;28;20209;-69
2023/04/03 01:45:30;;;;;;;4.28;1.67;;;0.10;99.90;;;;;;5057721;28;20304;-69
2023/04/03 01:47:57;;;;;;;2.13;1.48;;;0.10;99.90;;;;;;5056355;28;20194;-68
2023/04/03 01:50:25;;;;;;;1.90;1.25;;;0.10;99.90;;;;;;5056179;28;20578;-69
2023/04/03 01:52:52;;;;;;;6.03;2.30;;;0.10;99.90;;;;;;5055790;28;20208;-69
2023/04/03 01:55:19;;;;;;;1.90;1.30;;;0.10;99.90;;;;;;5055719;28;20204;-69
2023/04/03 01:57:46;;;;;;;2.50;1.15;;;0.10;99.90;;;;;;5055725;28;20660;-69
2023/04/03 02:00:14;;;;;;;7.18;2.28;;;0.00;99.90;;;;;;5055123;28;20212;-68
2023/04/03 02:02:41;;;;;;;4.57;1.48;;;0.00;99.90;;;;;;5055572;28;20216;-69
2023/04/03 02:05:08;;;;;;;8.27;2.75;;;0.00;99.90;;;;;;5055219;28;20212;-68
2023/04/03 02:07:36;;;;;;;4.65;2.00;;;0.00;99.90;;;;;;5056177;28;20206;-69
2023/04/03 02:10:03;;;;;;;7.57;2.33;;;0.00;99.90;;;;;;5056076;28;20197;-69
2023/04/03 02:12:30;;;;;;;6.90;2.35;;;0.00;99.90;;;;;;5055658;28;20567;-69
2023/04/03 02:14:57;;;;;;;5.20;1.75;;;-0.10;99.90;;;;;;5055523;28;20201;-69
2023/04/03 02:17:24;;;;;;;2.70;1.40;;;-0.10;99.90;;;;;;5055119;28;20225;-69
2023/04/03 02:19:50;;;;;;;7.93;1.83;;;-0.20;99.90;;;;;;5055153;28;20206;-70
2023/04/03 02:22:18;;;;;;;5.72;2.00;;;-0.20;99.90;;;;;;5054835;28;20562;-69
2023/04/03 02:24:46;;;;;;;6.78;2.05;;;-0.20;99.90;;;;;;5054874;28;20577;-69
2023/04/03 02:27:13;;;;;;;3.67;1.75;;;-0.30;99.90;;;;;;5055752;28;20245;-69
2023/04/03 02:29:39;;;;;;;5.72;1.90;;;-0.30;99.90;;;;;;5056960;28;20705;-68
2023/04/03 02:32:06;;;;;;;6.15;1.73;;;-0.30;99.90;;;;;;5056973;28;20205;-69
2023/04/03 02:34:33;;;;;;;9.60;1.80;;;-0.40;99.90;;;;;;5055925;28;20206;-68
2023/04/03 02:36:59;;;;;;;4.45;1.58;;;-0.40;99.90;;;;;;5057419;28;20229;-69
2023/04/03 02:39:27;;;;;;;5.65;1.65;;;-0.40;99.90;;;;;;5055776;28;20213;-69
2023/04/03 02:41:55;;;;;;;1.75;1.40;;;-0.50;99.90;;;;;;5055035;28;20209;-68
2023/04/03 02:44:23;;;;;;;6.00;1.73;;;-0.50;99.90;;;;;;5054757;28;20197;-68
2023/04/03 02:46:50;;;;;;;2.05;1.15;;;-0.50;99.90;;;;;;5054780;28;20711;-68
2023/04/03 02:49:16;;;;;;;3.38;2.00;;;-0.50;99.90;;;;;;5054600;28;20581;-69
2023/04/03 02:51:43;;;;;;;2.70;1.90;;;-0.60;99.90;;;;;;5054014;28;20586;-69
2023/04/03 02:54:10;;;;;;;2.25;1.40;;;-0.60;99.90;;;;;;5054581;28;20582;-69
2023/04/03 02:56:37;;;;;;;3.97;2.10;;;-0.60;99.90;;;;;;5053804;28;20229;-69
2023/04/03 02:59:05;;;;;;;3.80;1.95;;;-0.70;99.90;;;;;;5054282;28;20193;-68
2023/04/03 03:01:32;;;;;;;2.95;1.70;;;-0.70;99.90;;;;;;5054430;28;20324;-68
2023/04/03 03:04:00;;;;;;;5.53;1.60;;;-0.70;99.90;;;;;;5054090;28;20209;-70
2023/04/03 03:06:27;;;;;;;2.65;1.20;;;-0.80;99.90;;;;;;5054378;28;20244;-69
2023/04/03 03:08:54;;;;;;;2.67;1.50;;;-0.80;99.90;;;;;;5053849;28;20214;-69
2023/04/03 03:11:21;;;;;;;6.18;2.20;;;-0.80;99.90;;;;;;5053965;28;20213;-69
2023/04/03 03:13:47;;;;;;;4.35;2.33;;;-0.80;99.90;;;;;;5053604;28;20210;-68
2023/04/03 03:16:16;;;;;;;11.10;1.85;;;-0.90;99.90;;;;;;5053432;28;20251;-68
2023/04/03 03:18:42;;;;;;;6.93;2.00;;;-0.90;99.90;;;;;;5053654;28;20214;-68
2023/04/03 03:21:10;;;;;;;2.80;1.75;;;-0.90;99.90;;;;;;5054113;28;20224;-69
2023/04/03 03:23:37;;;;;;;5.18;2.10;;;-0.90;99.90;;;;;;5054641;28;20198;-69
2023/04/03 03:26:06;;;;;;;5.38;2.20;;;-0.90;99.90;;;;;;5053834;28;20221;-69
2023/04/03 03:28:34;;;;;;;4.10;2.20;;;-0.90;99.90;;;;;;5053997;28;20226;-69
2023/04/03 03:31:01;;;;;;;6.47;2.05;;;-1.00;99.90;;;;;;5054580;28;20289;-68
2023/04/03 03:33:29;;;;;;;5.07;1.67;;;-1.00;99.90;;;;;;5054663;28;20212;-69
2023/04/03 03:35:57;;;;;;;5.05;2.22;;;-1.00;99.90;;;;;;5053409;28;20240;-68
2023/04/03 03:38:24;;;;;;;5.03;1.90;;;-1.00;99.90;;;;;;5053590;28;20229;-68
2023/04/03 03:40:51;;;;;;;10.45;2.67;;;-1.00;99.90;;;;;;5054054;28;20198;-69
2023/04/03 03:43:19;;;;;;;3.28;1.88;;;-1.00;99.90;;;;;;5054191;28;20212;-68
2023/04/03 03:45:50;;;;;;;4.57;2.28;;;-1.10;99.90;;;;;;5053668;28;20268;-68
2023/04/03 03:48:17;;;;;;;7.43;2.42;;;-1.10;99.90;;;;;;5053515;28;20190;-69
2023/04/03 03:50:45;;;;;;;2.17;1.42;;;-1.10;99.90;;;;;;5053670;28;20634;-68
2023/04/03 03:53:12;;;;;;;4.05;1.52;;;-1.10;99.90;;;;;;5053534;28;20299;-69
2023/04/03 03:55:39;;;;;;;2.90;1.75;;;-1.10;99.90;;;;;;5053761;28;20243;-69
2023/04/03 03:58:06;;;;;;;3.90;2.00;;;-1.10;99.90;;;;;;5053352;28;20229;-69
2023/04/03 04:00:34;;;;;;;8.23;3.28;;;-1.10;99.90;;;;;;5053374;28;20671;-68
2023/04/03 04:03:00;;;;;;;1.92;1.80;;;-1.10;99.90;;;;;;5053263;28;20251;-69
2023/04/03 04:05:27;;;;;;;1.40;1.25;;;-1.10;99.90;;;;;;5053938;28;20308;-70
2023/04/03 04:11:32;;;;;;;2.33;1.88;;;-1.10;99.90;;;;;;5092825;28;20545;-68
2023/04/03 04:13:59;;;;;;;6.70;2.03;;;-1.10;99.90;;;;;;5090862;28;20308;-69
2023/04/03 04:16:25;;;;;;;4.43;1.88;;;-1.10;99.90;;;;;;5090715;28;20693;-68
2023/04/03 04:18:52;;;;;;;2.70;1.80;;;-1.10;99.90;;;;;;5091605;28;20557;-69
2023/04/03 04:21:19;;;;;;;7.35;1.75;;;-1.10;99.90;;;;;;5092064;28;20203;-69
2023/04/03 04:23:45;;;;;;;2.90;2.50;;;-1.10;99.90;;;;;;5091848;28;20211;-69
2023/04/03 04:26:12;;;;;;;4.70;2.55;;;-1.10;99.90;;;;;;5091415;28;20231;-70
2023/04/03 04:28:40;;;;;;;4.95;2.17;;;-1.20;99.90;;;;;;5091908;28;20200;-69
2023/04/03 04:31:07;;;;;;;6.70;1.60;;;-1.20;99.90;;;;;;5093274;28;20326;-70
2023/04/03 04:33:34;;;;;;;5.72;1.70;;;-1.20;99.90;;;;;;5092196;28;20206;-68
2023/04/03 04:36:01;;;;;;;5.88;2.28;;;-1.20;99.90;;;;;;5091770;28;20235;-70
2023/04/03 04:38:28;;;;;;;3.78;1.50;;;-1.20;99.90;;;;;;5092136;28;20203;-69
2023/04/03 04:40:54;;;;;;;10.65;2.20;;;-1.20;99.90;;;;;;5090474;28;20200;-64
2023/04/03 04:43:21;;;;;;;8.02;1.90;;;-1.20;99.90;;;;;;5090273;28;20200;-64
2023/04/03 04:45:49;;;;;;;5.10;1.80;;;-1.20;99.90;;;;;;5090140;28;20228;-64
2023/04/03 04:48:16;;;;;;;4.45;2.17;;;-1.20;99.90;;;;;;5090404;28;20201;-63
2023/04/03 04:50:43;;;;;;;5.07;1.58;;;-1.20;99.90;;;;;;5090023;28;20221;-64
2023/04/03 04:53:09;;;;;;;8.07;2.17;;;-1.20;99.90;;;;;;5090033;28;20207;-64
2023/04/03 04:55:36;;;;;;;2.13;1.88;;;-1.20;99.90;;;;;;5089960;28;20223;-63
2023/04/03 04:58:03;;;;;;;7.35;2.58;;;-1.20;99.90;;;;;;5090063;28;20197;-63
2023/04/03 05:00:30;;;;;;;5.22;2.13;;;-1.20;99.90;;;;;;5090016;28;20196;-63
2023/04/03 05:02:58;;;;;;;9.02;2.38;;;-1.20;99.90;;;;;;5089663;28;20236;-63
2023/04/03 05:05:25;;;;;;;3.17;1.75;;;-1.10;99.90;;;;;;5089993;28;20308;-64
2023/04/03 05:07:52;;;;;;;2.65;1.20;;;-1.10;99.90;;;;;;5089704;28;20677;-64
2023/04/03 05:10:18;;;;;;;5.30;2.10;;;-1.10;99.90;;;;;;5089506;28;20228;-62
2023/04/03 05:12:45;;;;;;;3.67;1.73;;;-1.10;99.90;;;;;;5090233;28;20260;-64
2023/04/03 05:15:12;;;;;;;4.85;2.58;;;-1.00;99.90;;;;;;5090234;28;20386;-63
2023/04/03 05:17:39;;;;;;;4.38;2.58;;;-1.00;99.90;;;;;;5091619;28;20203;-62
2023/04/03 05:20:08;;;;;;;6.22;3.08;;;-1.00;99.90;;;;;;5091123;28;20192;-63
2023/04/03 05:22:35;;;;;;;3.15;1.80;;;-0.90;99.90;;;;;;5078016;28;20288;-63
2023/04/03 05:25:02;;;;;;;7.85;2.33;;;-0.80;99.90;;;;;;5076031;28;20204;-64
2023/04/03 05:27:29;;;;;;;3.05;1.95;;;-0.70;99.90;;;;;;5075745;28;20206;-63
2023/04/03 05:29:56;;;;;;;3.85;1.70;;;-0.70;99.90;;;;;;5075677;28;20223;-64
2023/04/03 05:32:23;;;;;;;3.47;1.67;;;-0.70;99.90;;;;;;5075872;28;20295;-64
2023/04/03 05:34:50;;;;;;;8.55;1.95;;;-0.60;99.90;;;;;;5075517;28;20561;-63
2023/04/03 05:37:18;;;;;;;4.60;2.08;;;-0.60;99.90;;;;;;5075493;28;20282;-63
2023/04/03 05:39:45;;;;;;;4.70;1.85;;;-0.60;99.90;;;;;;5075416;28;20303;-63
2023/04/03 05:42:13;;;;;;;4.60;1.80;;;-0.50;99.90;;;;;;5075223;28;20205;-63
2023/04/03 05:44:40;;;;;;;3.90;2.17;;;-0.50;99.90;;;;;;5075204;28;20204;-64
2023/04/03 05:47:07;;;;;;;6.25;1.98;;;-0.50;99.90;;;;;;5075443;28;20312;-64
2023/04/03 05:49:34;;;;;;;14.20;3.50;;;-0.50;99.90;;;;;;5075883;28;20207;-63
2023/04/03 05:52:01;;;;;;;6.05;2.28;;;-0.40;99.90;;;;;;5075860;28;20205;-63
2023/04/03 05:54:30;;;;;;;3.85;1.85;;;-0.40;99.90;;;;;;5075140;28;20223;-63
2023/04/03 05:56:57;;;;;;;9.20;1.85;;;-0.30;99.90;;;;;;5075151;28;20221;-63
2023/04/03 05:59:24;;;;;;;4.57;2.30;;;-0.30;99.90;;;;;;5075636;28;20540;-65
2023/04/03 06:01:51;;;;;;;6.15;1.70;;;-0.20;99.90;;;;;;5075141;28;20522;-64
2023/04/03 06:04:18;;;;;;;3.40;1.85;;;-0.20;99.90;;;;;;5074555;28;20205;-65
2023/04/03 06:06:51;;;;;;;4.00;2.38;;;-0.10;99.90;;;;;;5075078;28;20233;-63
2023/04/03 06:09:18;;;;;;;3.95;1.75;;;-0.10;99.90;;;;;;5074906;28;20647;-60
2023/04/03 06:11:46;;;;;;;2.72;1.70;;;-0.10;99.90;;;;;;5075468;28;20561;-63
2023/04/03 06:14:13;;;;;;;3.25;1.50;;;0.00;99.90;;;;;;5074879;28;20205;-64
2023/04/03 06:16:41;;;;;;;3.72;2.00;;;0.10;99.90;;;;;;5074795;28;20231;-63
2023/04/03 06:19:09;;;;;;;3.78;1.92;;;0.20;99.90;;;;;;5074922;28;20197;-63
2023/04/03 06:21:36;;;;;;;5.57;1.42;;;0.20;99.90;;;;;;5074879;28;20248;-63
2023/04/03 06:24:03;;;;;;;3.72;1.65;;;0.30;99.90;;;;;;5074977;28;20291;-63
2023/04/03 06:26:30;;;;;;;3.55;1.75;;;0.40;99.90;;;;;;5074494;28;20235;-63
2023/04/03 06:28:58;;;;;;;6.22;1.83;;;0.40;99.90;;;;;;5075201;28;20236;-62
2023/04/03 06:31:25;;;;;;;3.42;2.13;;;0.50;99.90;;;;;;5074732;28;20533;-65
2023/04/03 06:33:52;;;;;;;3.35;1.92;;;0.60;99.90;;;;;;5073950;28;20204;-64
2023/04/03 06:36:20;;;;;;;2.80;1.90;;;0.60;99.90;;;;;;5090924;22;20236;-61
2023/04/03 06:38:48;;;;;;;3.13;1.52;;;0.70;99.90;;;;;;5038835;28;20218;-62
2023/04/03 06:41:16;;;;;;;4.45;1.80;;;0.80;99.90;;;;;;5038464;28;20199;-62
2023/04/03 06:43:42;;;;;;;3.13;1.58;;;0.90;99.90;;;;;;5037125;28;20203;-61
2023/04/03 06:46:15;;;;;;;3.72;1.67;;;1.00;99.90;;;;;;5037542;28;20786;-62
2023/04/03 06:48:42;;;;;;;6.15;1.40;;;1.00;99.90;;;;;;5037185;28;20190;-61
2023/04/03 06:51:16;;;;;;;5.22;1.70;;;1.10;99.90;;;;;;5037104;28;20229;-61
2023/04/03 06:53:42;;;;;;;1.48;1.25;;;1.20;99.90;;;;;;5039194;28;20237;-61
2023/04/03 06:56:09;;;;;;;2.97;1.92;;;1.30;99.90;;;;;;5037891;28;20226;-62
2023/04/03 06:58:37;;;;;;;1.73;1.40;;;1.40;99.90;;;;;;5038277;28;20242;-62
2023/04/03 07:01:04;;;;;;;3.13;1.65;;;1.50;99.90;;;;;;5038150;28;20284;-61
2023/04/03 07:03:32;;;;;;;3.63;1.40;;;1.60;99.90;;;;;;5037308;28;20202;-61
2023/04/03 07:05:59;;;;;;;9.57;2.25;;;1.70;99.90;;;;;;5041331;28;20202;-62
2023/04/03 07:08:26;;;;;;;4.38;1.85;;;1.80;99.90;;;;;;5038316;28;20680;-62
2023/04/03 07:10:53;;;;;;;4.00;1.85;;;1.90;99.90;;;;;;5037697;28;20284;-62
2023/04/03 07:13:19;;;;;;;2.30;1.50;;;2.00;99.90;;;;;;5034665;28;20207;-63
2023/04/03 07:15:46;;;;;;;1.80;1.60;;;2.20;99.90;;;;;;5034264;28;20206;-60
2023/04/03 07:18:13;;;;;;;3.50;1.10;;;2.30;99.90;;;;;;5034734;28;20198;-62
2023/04/03 07:20:41;;;;;;;6.03;1.83;;;2.40;99.90;;;;;;5034257;28;20198;-62
2023/04/03 07:23:08;;;;;;;1.33;0.98;;;2.50;99.90;;;;;;5034284;28;20205;-61
2023/04/03 07:25:35;;;;;;;4.80;1.60;;;2.50;99.90;;;;;;5034018;28;20288;-63
2023/04/03 07:28:02;;;;;;;5.72;2.00;;;2.60;99.90;;;;;;5034287;28;20230;-62
2023/04/03 07:30:28;;;;;;;8.10;1.83;;;2.70;99.90;;;;;;5034308;28;20221;-63
2023/04/03 07:32:55;;;;;;;2.78;1.10;;;2.80;99.90;;;;;;5034793;28;20621;-62
2023/04/03 07:35:22;;;;;;;4.72;2.20;;;2.90;99.90;;;;;;5034418;28;20733;-62
2023/04/03 07:37:50;;;;;;;2.28;1.40;;;3.10;99.90;;;;;;5033941;28;20257;-62
2023/04/03 07:40:17;;;;;;;3.22;1.55;;;3.20;99.90;;;;;;5034241;28;20206;-62
2023/04/03 07:42:44;;;;;;;3.22;1.70;;;3.30;99.90;;;;;;5034263;28;20205;-62
2023/04/03 07:45:11;;;;;;;4.35;1.88;;;3.40;99.40;;;;;;5033734;28;20206;-63
2023/04/03 07:47:38;;;;;;;4.78;1.40;;;3.50;98.80;;;;;;5033790;28;20747;-62
2023/04/03 07:50:06;;;;;;;7.10;1.30;;;3.70;98.30;;;;;;5034285;28;20202;-61
2023/04/03 07:52:33;;;;;;;2.08;1.10;;;3.80;97.60;;;;;;5034325;28;20243;-62
2023/04/03 07:55:01;;;;;;;6.57;2.40;;;3.80;96.10;;;;;;5033453;28;20294;-62
2023/04/03 07:57:28;;;;;;;2.15;1.15;;;3.80;94.90;;;;;;5033765;28;20261;-62
2023/04/03 07:59:55;;;;;;;5.63;1.80;;;3.80;93.60;;;;;;5034097;28;20198;-62
2023/04/03 08:02:22;;;;;;;9.25;1.65;;;3.80;93.10;;;;;;5033948;28;20567;-63
2023/04/03 08:04:49;;;;;;;4.20;1.42;;;3.90;93.00;;;;;;5034591;28;20577;-64
2023/04/03 08:07:16;;;;;;;2.90;2.38;;;3.90;92.20;;;;;;5034559;28;20297;-63
2023/04/03 08:09:44;;;;;;;3.78;1.25;;;4.00;91.40;;;;;;5034031;28;20213;-63
2023/04/03 08:12:12;;;;;;;2.15;1.10;;;4.00;90.20;;;;;;5033678;28;20634;-63
2023/04/03 08:14:39;;;;;;;3.75;1.60;;;4.10;90.00;;;;;;5034202;28;20202;-63
2023/04/03 08:17:09;;;;;;;1.73;1.50;;;4.20;89.10;;;;;;5033920;28;20222;-62
2023/04/03 08:19:36;;;;;;;4.18;1.40;;;4.30;88.20;;;;;;5034350;28;20276;-63
2023/04/03 08:22:03;;;;;;;4.15;1.40;;;4.40;87.70;;;;;;5034514;28;20626;-63
2023/04/03 08:24:30;;;;;;;2.08;1.42;;;4.50;86.60;;;;;;5036665;28;20206;-63
2023/04/03 08:26:57;;;;;;;2.75;1.05;;;4.60;85.20;;;;;;5036854;28;20226;-62
2023/04/03 08:29:26;;;;;;;5.43;1.60;;;4.60;84.00;;;;;;5036820;28;20199;-63
2023/04/03 08:31:52;;;;;;;4.20;1.83;;;4.60;83.10;;;;;;5037396;28;20229;-62
2023/04/03 08:34:21;;;;;;;7.10;1.42;;;4.60;81.90;;;;;;5036182;28;20207;-62
2023/04/03 08:36:48;;;;;;;2.75;1.33;;;4.70;80.70;;;;;;5037977;28;20265;-62
2023/04/03 08:39:15;;;;;;;2.20;1.10;;;4.70;78.80;;;;;;5036995;28;20212;-62
2023/04/03 08:41:43;;;;;;;2.90;1.48;;;4.60;77.50;;;;;;5039323;28;20229;-63
2023/04/03 08:44:19;;;;;;;3.72;1.65;;;4.60;78.10;;;;;;5040143;28;20198;-62
2023/04/03 08:47:02;;;;;;;3.75;1.50;;;4.70;77.50;;;;;;5041561;28;20304;-62
2023/04/03 08:49:33;;;;;;;2.38;1.42;;;4.80;76.60;;;;;;5040821;28;20193;-63
2023/04/03 08:52:03;;;;;;;3.00;1.98;;;4.90;74.70;;;;;;5036349;28;20215;-62
2023/04/03 08:54:34;;;;;;;3.15;1.55;;;4.90;73.70;;;;;;5033689;28;20190;-61
2023/04/03 08:57:05;;;;;;;3.60;1.35;;;4.90;72.80;;;;;;5034942;28;20222;-63
2023/04/03 08:59:36;;;;;;;3.13;1.30;;;5.00;71.50;;;;;;5037186;28;20190;-62
2023/04/03 09:02:15;;;;;;;1.75;1.17;;;5.10;69.30;;;;;;5037199;28;20529;-63
2023/04/03 09:04:41;;;;;;;1.55;1.25;;;5.20;68.40;;;;;;5036935;28;20193;-63
2023/04/03 09:07:15;;;;;;;2.03;0.90;;;5.30;67.50;;;;;;5038077;28;20238;-62
2023/04/03 09:09:43;;;;;;;2.20;1.20;;;5.40;66.80;;;;;;5037541;28;20183;-63
2023/04/03 09:12:19;;;;;;;1.70;1.00;;;5.50;65.40;;;;;;5037025;28;20226;-63
2023/04/03 09:14:57;;;;;;;5.03;1.38;;;5.50;64.50;;;;;;5036281;28;20641;-63
2023/04/03 09:17:37;;;;;;;2.45;1.20;;;5.40;64.30;;;;;;5036794;28;20229;-63
2023/04/03 09:20:20;;;;;;;3.35;1.10;;;5.40;64.20;;;;;;5036847;28;20191;-64
2023/04/03 09:22:49;;;;;;;3.15;1.20;;;5.60;63.60;;;;;;5036938;28;20563;-63
2023/04/03 09:25:21;;;;;;;2.63;1.13;;;5.60;63.00;;;;;;5037095;28;20203;-63
2023/04/03 09:27:48;;;;;;;3.78;1.45;;;5.70;62.00;;;;;;5036454;28;20227;-64
2023/04/03 09:30:16;;;;;;;2.97;1.25;;;5.70;61.30;;;;;;5036927;28;20289;-63
2023/04/03 09:32:46;;;;;;;2.75;0.88;;;5.70;61.00;;;;;;5036573;28;20229;-63
2023/04/03 09:35:22;;;;;;;5.75;1.35;;;5.80;60.70;;;;;;5036544;28;20202;-62
2023/04/03 09:37:51;;;;;;;4.63;1.75;;;6.00;60.00;;;;;;5035909;28;20234;-63
2023/04/03 09:40:38;;;;;;;4.22;2.05;;;6.20;59.90;;;;;;5035983;28;20212;-65
2023/04/03 09:43:21;;;;;;;3.35;1.20;;;6.50;59.60;;;;;;5036604;28;20189;-65
2023/04/03 09:45:50;;;;;;;2.75;1.23;;;6.60;58.30;;;;;;5036824;28;20718;-62
2023/04/03 09:48:20;;;;;;;4.18;1.35;;;6.70;57.00;;;;;;5036152;28;20651;-63
2023/04/03 09:50:59;;;;;;;1.88;1.05;;;6.60;55.70;;;;;;5035890;28;20191;-64
2023/04/03 09:53:36;;;;;;;2.33;1.40;;;6.60;55.00;;;;;;5036050;28;20640;-64
2023/04/03 09:56:06;;;;;;;3.13;1.20;;;6.70;53.50;;;;;;5035899;28;20291;-62
2023/04/03 09:58:38;;;;;;;3.00;1.20;;;6.90;52.10;;;;;;5036832;28;20190;-63
2023/04/03 10:01:06;;;;;;;2.20;1.10;;;7.10;50.00;;;;;;5036912;28;20222;-63
2023/04/03 10:03:36;;;;;;;2.15;1.40;;;7.30;49.20;;;;;;5039486;28;20203;-62
2023/04/03 10:06:04;;;;;;;6.28;1.95;;;7.60;49.00;;;;;;5037823;28;20894;-63
2023/04/03 10:08:32;;;;;;;2.88;1.27;;;7.90;48.30;;;;;;5038542;28;20202;-63
2023/04/03 10:11:12;;;;;;;2.72;1.40;;;8.10;47.40;;;;;;5038671;28;20297;-63
2023/04/03 10:13:52;;;;;;;3.13;1.70;;;8.20;46.00;;;;;;5042846;28;20194;-63
2023/04/03 10:16:22;;;;;;;3.85;1.45;;;8.20;44.90;;;;;;5039702;28;20258;-64
2023/04/03 10:19:02;;;;;;;2.20;1.30;;;8.20;45.50;;;;;;5037209;28;20193;-63
2023/04/03 10:21:36;;;;;;;3.42;1.33;;;8.40;45.10;;;;;;5036353;28;20198;-63
2023/04/03 10:24:10;;;;;;;2.45;1.05;;;8.70;44.80;;;;;;5036776;28;20194;-63
2023/04/03 10:26:44;;;;;;;2.05;1.00;;;8.90;43.90;;;;;;5037172;28;20330;-64
2023/04/03 10:29:22;;;;;;;3.03;1.08;;;9.00;43.30;;;;;;5036101;28;20182;-62
2023/04/03 10:31:56;;;;;;;1.92;1.10;;;9.00;43.00;;;;;;5035514;28;20206;-64
2023/04/03 10:34:31;;;;;;;1.20;0.80;;;9.10;42.70;;;;;;5036645;28;20227;-63
2023/04/03 10:37:06;;;;;;;1.80;1.10;;;9.20;42.90;;;;;;5041699;28;20261;-63
2023/04/03 10:39:40;;;;;;;3.80;1.42;;;9.20;42.90;;;;;;5035499;28;20191;-64
2023/04/03 10:42:14;;;;;;;1.55;0.80;;;9.20;43.00;;;;;;5035327;28;20278;-63
2023/04/03 10:44:53;;;;;;;2.42;1.10;;;9.10;42.90;;;;;;5035681;28;20641;-65
2023/04/03 10:47:24;;;;;;;1.70;1.13;;;9.00;42.40;;;;;;5035426;28;20554;-63
2023/04/03 10:50:00;;;;;;;2.38;1.38;;;9.00;42.60;;;;;;5035786;28;20191;-63
2023/04/03 10:52:35;;;;;;;1.50;0.98;;;9.00;42.40;;;;;;5036483;28;20297;-64
2023/04/03 10:55:20;;;;;;;1.52;1.10;;;9.20;42.50;;;;;;5042125;28;20186;-65
2023/04/03 10:57:49;;;;;;;2.45;1.20;;;9.30;42.10;;;;;;5042174;28;20222;-65
2023/04/03 11:00:20;;;;;;;5.13;1.23;;;9.20;42.30;;;;;;5040705;28;20237;-62
2023/04/03 11:02:53;;;;;;;2.03;1.20;;;9.10;42.50;;;;;;5038828;28;20182;-63
2023/04/03 11:05:32;;;;;;;3.17;1.30;;;9.20;42.70;;;;;;5036135;28;20700;-63
2023/04/03 11:08:03;;;;;;;2.45;1.08;;;9.30;42.50;;;;;;5035934;28;20699;-62
2023/04/03 11:10:38;;;;;;;2.25;1.23;;;9.30;41.90;;;;;;5036549;28;20699;-64
2023/04/03 11:13:13;;;;;;;4.93;1.10;;;8.90;41.60;;;;;;5035824;28;20205;-63
2023/04/03 11:15:41;;;;;;;4.72;1.10;;;8.60;41.90;;;;;;5035713;28;20190;-63
2023/04/03 11:18:11;;;;;;;1.48;1.05;;;8.50;41.90;;;;;;5035840;28;20727;-64
2023/04/03 11:20:45;;;;;;;1.95;1.13;;;8.30;42.00;;;;;;5035466;28;20284;-64
2023/04/03 11:23:22;;;;;;;4.70;1.20;;;8.30;42.20;;;;;;5034765;28;20225;-63
2023/04/03 11:25:53;;;;;;;1.98;1.40;;;8.40;42.20;;;;;;5034583;28;20554;-64
2023/04/03 11:28:20;;;;;;;1.67;1.10;;;8.60;41.70;;;;;;5035008;28;20191;-63
2023/04/03 11:30:50;;;;;;;1.55;1.23;;;8.60;40.70;;;;;;5034943;28;20206;-63
2023/04/03 11:33:37;;;;;;;2.55;1.35;;;8.50;40.80;;;;;;5034515;28;20748;-63
2023/04/03 11:36:09;;;;;;;3.10;1.10;;;8.50;41.00;;;;;;5034905;28;20222;-63
2023/04/03 11:38:40;;;;;;;2.00;1.80;;;8.60;41.20;;;;;;5035838;28;20198;-63
2023/04/03 11:41:09;;;;;;;2.70;1.60;;;8.40;41.40;;;;;;5034983;28;20190;-64
2023/04/03 11:43:43;;;;;;;3.90;1.70;;;8.30;41.80;;;;;;5034965;28;20202;-64
2023/04/03 11:46:11;;;;;;;2.55;1.50;;;8.20;42.30;;;;;;5036489;28;20222;-64
2023/04/03 11:48:50;;;;;;;1.33;1.13;;;8.20;42.70;;;;;;5034334;28;20659;-64
2023/04/03 11:51:44;;;;;;;4.53;1.63;;;8.10;43.20;;;;;;5034740;28;20583;-63
2023/04/03 11:54:52;;;;;;;9.02;1.50;;;8.10;43.90;;;;;;5037468;28;20218;-65
2023/04/03 11:57:46;;;;;;;1.75;0.98;;;8.10;44.20;;;;;;5041303;28;20635;-64
2023/04/03 12:00:49;;;;;;;3.22;0.90;;;8.00;44.60;;;;;;4977606;28;20726;-65
2023/04/03 12:03:52;;;;;;;3.13;1.05;;;8.30;45.00;;;;;;5038156;28;20186;-63
2023/04/03 12:06:56;;;;;;;2.95;1.40;;;8.70;44.80;;;;;;5035494;28;20312;-64
2023/04/03 12:09:30;;;;;;;2.22;1.08;;;9.30;43.90;;;;;;5036187;28;20665;-64
2023/04/03 12:11:58;;;;;;;1.95;0.93;;;9.50;42.60;;;;;;5039654;28;20221;-63
2023/04/03 12:14:28;;;;;;;3.17;1.20;;;9.40;42.00;;;;;;5037939;28;20229;-62
2023/04/03 12:16:57;;;;;;;3.17;1.48;;;9.00;40.90;;;;;;5038125;28;20676;-63
2023/04/03 12:19:40;;;;;;;1.95;1.10;;;8.80;41.00;;;;;;5037587;28;20210;-63
2023/04/03 12:22:15;;;;;;;3.08;1.30;;;8.50;41.20;;;;;;5040901;28;20273;-63
2023/04/03 12:24:43;;;;;;;3.40;1.10;;;8.40;41.40;;;;;;5039451;28;20252;-63
2023/04/03 12:27:29;;;;;;;2.45;1.30;;;8.30;42.10;;;;;;5034364;28;20218;-63
2023/04/03 12:30:15;;;;;;;2.13;1.10;;;8.20;41.60;;;;;;5033731;28;20229;-63
2023/04/03 12:33:06;;;;;;;1.85;1.20;;;8.10;41.60;;;;;;5036432;28;20216;-63
2023/04/03 12:35:40;;;;;;;3.42;1.27;;;8.10;41.70;;;;;;5037231;28;20210;-64
2023/04/03 12:38:53;;;;;;;3.38;1.30;;;8.10;41.80;;;;;;5080635;22;20233;-66
2023/04/03 12:41:28;;;;;;;2.83;1.50;;;8.00;42.10;;;;;;5057574;28;20202;-65
2023/04/03 12:44:10;;;;;;;2.85;1.15;;;7.80;42.20;;;;;;5056722;28;20240;-66
2023/04/03 12:46:40;;;;;;;2.20;1.30;;;7.60;42.60;;;;;;5056788;28;20269;-67
2023/04/03 12:49:25;;;;;;;2.25;1.20;;;7.40;43.20;;;;;;5057104;28;20287;-65
2023/04/03 12:51:52;;;;;;;2.78;1.45;;;7.60;43.60;;;;;;5056706;28;20182;-67
2023/04/03 12:54:23;;;;;;;2.28;1.27;;;7.70;42.80;;;;;;5057293;28;20644;-66
2023/04/03 12:56:51;;;;;;;2.20;1.33;;;7.90;42.50;;;;;;5056600;28;20182;-66
2023/04/03 12:59:21;;;;;;;2.45;1.30;;;8.00;42.00;;;;;;5056388;28;20201;-66
2023/04/03 13:01:56;;;;;;;1.58;0.95;;;8.20;41.80;;;;;;5057323;28;20201;-65
2023/04/03 13:04:24;;;;;;;5.25;1.40;;;8.40;41.50;;;;;;5056581;28;20196;-67
2023/04/03 13:06:51;;;;;;;2.15;1.30;;;8.70;41.40;;;;;;5056101;28;20693;-66
2023/04/03 13:09:23;;;;;;;1.65;1.30;;;9.10;41.20;;;;;;5056578;28;20206;-65
2023/04/03 13:11:52;;;;;;;3.28;1.35;;;9.40;40.60;;;;;;5056071;28;20205;-67
2023/04/03 13:14:20;;;;;;;2.92;0.90;;;9.70;40.20;;;;;;5056356;28;20209;-66